»·PEaware :: N800DW KSAN-KAVX

N800DW :: KSAN-KAVX

FLIGHT INFORMATION

Flight Status: Arrived
Operator: Privately registered:
United States
More flights under this callsign
Pilot: Scott L. (17677)
Aircraft: CESSNA 172 SKYHAWK
(C172)
More flights by this aircraft type
Origin: KSAN San Diego Intl-Lindbergh
United States
Destination: KAVX Catalina
United States
More flights between these airports :: More routes between these airports
Route: +DIRECT
File this flight plan on PilotEdge
Remarks: CAT 06
Altitude:
(Current/Filed)
7,500ft
Speed:
(Current/Filed)
120kts
Departed: 06-Jan-18 12:16 PM
Arrived: 06-Jan-18 12:50 PM
Distance/Time
Traveled:
77nm/0:34
Distance/Time
To Go:
Arrived

Flight Plot

Page will automatically refresh every two minutes.


Map Options




Map Legend


Flown Route
Filed Route
Departure Airport
Arrival Airport
Navaid (VOR, NDB)
Fix

Horizontal Profiles

Position Reports

Time Latitude Longitude Heading Altitude Ground
Speed
06-Jan-18 12:15 32.734272 -117.185249 196 14ft 0kts
06-Jan-18 12:16 32.734272 -117.185249 196 14ft 0kts
06-Jan-18 12:17 32.734272 -117.185249 196 14ft 0kts
06-Jan-18 12:18 32.733434 -117.184395 104 14ft 16kts
06-Jan-18 12:19 32.731575 -117.176743 117 17ft 23kts
06-Jan-18 12:20 32.730965 -117.175517 137 18ft 0kts
06-Jan-18 12:21 32.730173 -117.175631 273 17ft 15kts
06-Jan-18 12:22 32.741664 -117.208568 332 390ft 155kts
06-Jan-18 12:23 32.775342 -117.246580 308 788ft 173kts
06-Jan-18 12:24 32.812048 -117.284548 324 1344ft 171kts
06-Jan-18 12:25 32.849570 -117.317095 319 2296ft 159kts
06-Jan-18 12:26 32.885489 -117.348048 324 3137ft 162kts
06-Jan-18 12:27 32.922433 -117.378948 322 3758ft 168kts
06-Jan-18 12:28 32.959048 -117.410052 322 4617ft 158kts
06-Jan-18 12:29 32.975379 -117.457137 272 5097ft 158kts
06-Jan-18 12:30 32.977646 -117.507830 272 5771ft 155kts
06-Jan-18 12:31 32.980101 -117.558902 272 6411ft 154kts
06-Jan-18 12:32 32.983130 -117.613478 278 6443ft 171kts
06-Jan-18 12:33 33.001303 -117.666495 296 6444ft 176kts
06-Jan-18 12:34 33.026784 -117.716309 299 6444ft 176kts
06-Jan-18 12:35 33.053228 -117.765211 300 6444ft 175kts
06-Jan-18 12:36 33.079712 -117.813848 299 6444ft 174kts
06-Jan-18 12:37 33.105528 -117.861267 299 6446ft 173kts
06-Jan-18 12:38 33.131725 -117.909449 299 6455ft 173kts
06-Jan-18 12:39 33.157830 -117.957528 299 6481ft 172kts
06-Jan-18 12:40 33.183977 -118.005735 299 6491ft 173kts
06-Jan-18 12:41 33.210163 -118.054076 299 6500ft 173kts
06-Jan-18 12:42 33.236410 -118.102591 299 6506ft 174kts
06-Jan-18 12:43 33.262687 -118.151232 299 6506ft 174kts
06-Jan-18 12:44 33.287684 -118.194346 302 6044ft 130kts
06-Jan-18 12:45 33.312104 -118.222772 311 4881ft 117kts
06-Jan-18 12:46 33.327297 -118.256731 289 4367ft 122kts
06-Jan-18 12:47 33.340938 -118.293865 288 3988ft 122kts
06-Jan-18 12:48 33.350338 -118.336626 286 3013ft 131kts
06-Jan-18 12:49 33.367206 -118.374593 300 2149ft 133kts
06-Jan-18 12:50 33.392750 -118.398877 325 2352ft 148kts
06-Jan-18 12:51 33.433153 -118.389561 321 3080ft 106kts
06-Jan-18 12:52 33.423400 -118.401697 179 2599ft 90kts
06-Jan-18 12:53 33.408813 -118.391436 87 2285ft 108kts
06-Jan-18 12:54 33.411522 -118.397135 269 2004ft 89kts
06-Jan-18 12:55 33.404548 -118.416571 233 1544ft 43kts
06-Jan-18 12:56 33.403607 -118.415245 23 1539ft 0kts
06-Jan-18 12:57 33.403607 -118.415245 23 1539ft 0kts
06-Jan-18 12:58 33.403607 -118.415245 23 1539ft 0kts
06-Jan-18 12:59 33.403607 -118.415245 23 1539ft 0kts
06-Jan-18 13:00 33.403607 -118.415245 23 1539ft 0kts
06-Jan-18 13:01 33.403607 -118.415245 23 1539ft 0kts
06-Jan-18 13:02 33.403607 -118.415245 23 1539ft 0kts
06-Jan-18 13:03 33.403607 -118.415245 23 1539ft 0kts
06-Jan-18 13:04 33.403607 -118.415245 23 1539ft 0kts
06-Jan-18 13:05 33.403726 -118.415184 24 1538ft 6kts
06-Jan-18 13:06 33.406999 -118.411684 54 1507ft 8kts
06-Jan-18 13:07 33.407058 -118.411584 54 1506ft 0kts
06-Jan-18 13:08 33.402610 -118.419891 237 1703ft 86kts
06-Jan-18 13:09 33.387029 -118.451663 257 2775ft 123kts
06-Jan-18 13:10 33.400912 -118.489979 330 3827ft 154kts

Navigation Log

Ident Type
1. KSAN Airport
2. KAVX Airport